Time;durP1;ratioP1;P1;durP2;ratioP2;P2;SDS_P1;SDS_P2;PMS_P1;PMS_P2;Temp;Humidity;BMP_temperature;BMP_pressure;BME280_temperature;BME280_humidity;BME280_pressure;Samples;Min_cycle;Max_cycle;Signal;HPM_P1;HPM_P2
2023/01/25 00:00:20;;;;;;;0.20;0.20;;;;;;;;;;4152358;28;20057;-43
2023/01/25 00:02:21;;;;;;;0.10;0.10;;;;;;;;;;4147576;28;20081;-43
2023/01/25 00:04:23;;;;;;;0.17;0.17;;;;;;;;;;4159776;28;20084;-43
2023/01/25 00:06:24;;;;;;;0.40;0.20;;;;;;;;;;4153291;28;20064;-45
2023/01/25 00:08:25;;;;;;;0.50;0.20;;;;;;;;;;4153410;28;20129;-43
2023/01/25 00:10:27;;;;;;;0.30;0.20;;;;;;;;;;4159831;28;20054;-43
2023/01/25 00:12:28;;;;;;;0.32;0.20;;;;;;;;;;4161376;28;20049;-44
2023/01/25 00:14:30;;;;;;;0.40;0.17;;;;;;;;;;4151674;28;20053;-44
2023/01/25 00:16:31;;;;;;;0.77;0.20;;;;;;;;;;4154071;28;20215;-44
2023/01/25 00:18:33;;;;;;;0.20;0.20;;;;;;;;;;4158035;28;20417;-43
2023/01/25 00:20:34;;;;;;;1.13;0.40;;;;;;;;;;4162969;28;20053;-43
2023/01/25 00:22:35;;;;;;;0.10;0.10;;;;;;;;;;4159138;28;20053;-42
2023/01/25 00:24:37;;;;;;;0.47;0.20;;;;;;;;;;4153404;28;20056;-44
2023/01/25 00:26:40;;;;;;;0.35;0.22;;;;;;;;;;4163450;28;20149;-43
2023/01/25 00:28:48;;;;;;;0.22;0.22;;;;;;;;;;4149462;28;20132;-44
2023/01/25 00:30:50;;;;;;;0.10;0.10;;;;;;;;;;4161654;28;20052;-44
2023/01/25 00:32:57;;;;;;;0.50;0.20;;;;;;;;;;4163113;28;20061;-43
2023/01/25 00:35:00;;;;;;;0.80;0.45;;;;;;;;;;4145705;28;20050;-44
2023/01/25 00:37:04;;;;;;;0.22;0.20;;;;;;;;;;4160964;28;20057;-44
2023/01/25 00:39:10;;;;;;;0.20;0.13;;;;;;;;;;4162660;28;20542;-43
2023/01/25 00:41:13;;;;;;;0.10;0.10;;;;;;;;;;4153704;28;20057;-42
2023/01/25 00:43:14;;;;;;;0.20;0.20;;;;;;;;;;4158145;28;20049;-42
2023/01/25 00:45:16;;;;;;;0.20;0.20;;;;;;;;;;4161527;28;20053;-45
2023/01/25 00:47:17;;;;;;;0.47;0.32;;;;;;;;;;4158460;28;20065;-43
2023/01/25 00:49:22;;;;;;;0.10;0.10;;;;;;;;;;4151631;28;20045;-44
2023/01/25 00:51:24;;;;;;;0.35;0.30;;;;;;;;;;4162795;28;20049;-43
2023/01/25 00:53:25;;;;;;;0.50;0.20;;;;;;;;;;4161522;28;20053;-43
2023/01/25 00:55:27;;;;;;;0.20;0.20;;;;;;;;;;4154295;28;20053;-44
2023/01/25 00:57:28;;;;;;;0.10;0.10;;;;;;;;;;4155520;28;20520;-44
2023/01/25 00:59:29;;;;;;;0.15;0.10;;;;;;;;;;4155414;28;20053;-43
2023/01/25 01:01:31;;;;;;;0.25;0.20;;;;;;;;;;4161418;28;20100;-42
2023/01/25 01:03:33;;;;;;;0.43;0.20;;;;;;;;;;4162219;28;20060;-47
2023/01/25 01:05:35;;;;;;;0.20;0.20;;;;;;;;;;4162455;28;20072;-45
2023/01/25 01:07:36;;;;;;;0.75;0.20;;;;;;;;;;4161338;28;20053;-43
2023/01/25 01:09:37;;;;;;;0.20;0.20;;;;;;;;;;4160841;28;20053;-44
2023/01/25 01:11:38;;;;;;;0.75;0.47;;;;;;;;;;4149050;28;20132;-42
2023/01/25 01:13:40;;;;;;;0.20;0.20;;;;;;;;;;4162938;28;20096;-43
2023/01/25 01:15:41;;;;;;;0.38;0.20;;;;;;;;;;4162719;28;20061;-43
2023/01/25 01:17:42;;;;;;;0.28;0.20;;;;;;;;;;4152121;28;20107;-43
2023/01/25 01:19:46;;;;;;;0.22;0.20;;;;;;;;;;4174640;28;20107;-46
2023/01/25 01:21:47;;;;;;;0.88;0.20;;;;;;;;;;4162435;28;20061;-43
2023/01/25 01:23:52;;;;;;;0.28;0.22;;;;;;;;;;4154349;28;20053;-43
2023/01/25 01:25:54;;;;;;;0.40;0.40;;;;;;;;;;4156050;28;20053;-43
2023/01/25 01:27:55;;;;;;;0.20;0.20;;;;;;;;;;4149302;28;20080;-43
2023/01/25 01:29:56;;;;;;;0.20;0.20;;;;;;;;;;4162323;28;20053;-43
2023/01/25 01:31:58;;;;;;;0.15;0.15;;;;;;;;;;4162681;28;20053;-44
2023/01/25 01:34:00;;;;;;;0.30;0.20;;;;;;;;;;4161411;28;20054;-43
2023/01/25 01:36:08;;;;;;;0.10;0.10;;;;;;;;;;4131985;28;20065;-43
2023/01/25 01:38:10;;;;;;;0.47;0.30;;;;;;;;;;4146393;28;20449;-43
2023/01/25 01:40:14;;;;;;;0.20;0.10;;;;;;;;;;4152268;28;20104;-43
2023/01/25 01:42:15;;;;;;;0.50;0.20;;;;;;;;;;4144784;28;20053;-45
2023/01/25 01:44:21;;;;;;;0.82;0.30;;;;;;;;;;4161049;28;20100;-43
2023/01/25 01:46:28;;;;;;;0.10;0.10;;;;;;;;;;4145016;28;20093;-43
2023/01/25 01:48:36;;;;;;;0.20;0.10;;;;;;;;;;4152163;28;20091;-42
2023/01/25 01:50:39;;;;;;;0.22;0.20;;;;;;;;;;4140070;28;20482;-43
2023/01/25 01:52:40;;;;;;;0.50;0.20;;;;;;;;;;4147213;28;20050;-44
2023/01/25 01:54:45;;;;;;;0.35;0.20;;;;;;;;;;4158249;28;20058;-42
2023/01/25 01:56:52;;;;;;;0.10;0.10;;;;;;;;;;4152880;28;20434;-43
2023/01/25 01:58:55;;;;;;;0.68;0.20;;;;;;;;;;4172927;28;20390;-43
2023/01/25 02:00:56;;;;;;;0.55;0.20;;;;;;;;;;4157781;28;20099;-43
2023/01/25 02:02:57;;;;;;;0.30;0.17;;;;;;;;;;4150732;28;20116;-43
2023/01/25 02:05:02;;;;;;;0.25;0.20;;;;;;;;;;4160771;28;20115;-43
2023/01/25 02:07:14;;;;;;;0.22;0.20;;;;;;;;;;4160902;28;20053;-42
2023/01/25 02:09:21;;;;;;;0.20;0.20;;;;;;;;;;4144799;28;20124;-42
2023/01/25 02:11:23;;;;;;;0.25;0.10;;;;;;;;;;4144255;28;20563;-43
2023/01/25 02:13:25;;;;;;;0.22;0.20;;;;;;;;;;4153351;28;20108;-43
2023/01/25 02:15:28;;;;;;;0.10;0.10;;;;;;;;;;4150582;28;20054;-43
2023/01/25 02:17:33;;;;;;;0.22;0.20;;;;;;;;;;4160639;28;20060;-43
2023/01/25 02:19:48;;;;;;;0.20;0.20;;;;;;;;;;4155448;28;20314;-43
2023/01/25 02:21:51;;;;;;;0.30;0.30;;;;;;;;;;4170875;28;20053;-42
2023/01/25 02:23:56;;;;;;;0.30;0.15;;;;;;;;;;4157543;28;20130;-43
2023/01/25 02:26:00;;;;;;;0.10;0.10;;;;;;;;;;4148791;28;20076;-44
2023/01/25 02:28:07;;;;;;;0.73;0.30;;;;;;;;;;4144648;28;20536;-42
2023/01/25 02:30:09;;;;;;;2.08;0.22;;;;;;;;;;4162081;28;20064;-43
2023/01/25 02:32:12;;;;;;;0.10;0.10;;;;;;;;;;4164589;28;20131;-43
2023/01/25 02:34:13;;;;;;;0.20;0.20;;;;;;;;;;4165106;28;20053;-42
2023/01/25 02:36:16;;;;;;;0.13;0.10;;;;;;;;;;4165193;28;20283;-44
2023/01/25 02:38:20;;;;;;;0.50;0.20;;;;;;;;;;4147421;28;20112;-42
2023/01/25 02:40:24;;;;;;;0.32;0.20;;;;;;;;;;4162201;28;20049;-42
2023/01/25 02:42:29;;;;;;;0.22;0.20;;;;;;;;;;4147571;28;20057;-43
2023/01/25 02:44:31;;;;;;;0.20;0.10;;;;;;;;;;4147092;28;20505;-43
2023/01/25 02:46:35;;;;;;;0.10;0.10;;;;;;;;;;4115016;28;20058;-43
2023/01/25 02:48:37;;;;;;;0.10;0.10;;;;;;;;;;4146738;28;20497;-44
2023/01/25 02:50:38;;;;;;;0.30;0.20;;;;;;;;;;4148215;28;20473;-43
2023/01/25 02:52:40;;;;;;;0.30;0.20;;;;;;;;;;4154908;28;20053;-42
2023/01/25 02:54:42;;;;;;;0.30;0.20;;;;;;;;;;4163039;28;20496;-43
2023/01/25 02:56:44;;;;;;;0.20;0.20;;;;;;;;;;4152342;28;20057;-43
2023/01/25 02:58:46;;;;;;;0.28;0.20;;;;;;;;;;4146845;28;20054;-43
2023/01/25 03:00:47;;;;;;;0.20;0.20;;;;;;;;;;4164129;28;20111;-43
2023/01/25 03:02:48;;;;;;;0.10;0.10;;;;;;;;;;4164168;28;20203;-45
2023/01/25 03:04:50;;;;;;;0.28;0.20;;;;;;;;;;4162433;28;20108;-43
2023/01/25 03:06:52;;;;;;;0.38;0.20;;;;;;;;;;4162828;28;20099;-43
2023/01/25 03:08:53;;;;;;;0.45;0.20;;;;;;;;;;4163134;28;20089;-43
2023/01/25 03:10:56;;;;;;;0.10;0.10;;;;;;;;;;4162782;28;20056;-42
2023/01/25 03:12:58;;;;;;;0.20;0.20;;;;;;;;;;4163124;28;20147;-45
2023/01/25 03:14:59;;;;;;;0.20;0.10;;;;;;;;;;4145547;28;20231;-42
2023/01/25 03:17:01;;;;;;;0.10;0.10;;;;;;;;;;4166749;28;20053;-43
2023/01/25 03:19:03;;;;;;;0.20;0.10;;;;;;;;;;4146831;28;20054;-42
2023/01/25 03:21:15;;;;;;;0.10;0.10;;;;;;;;;;4163105;28;20050;-44
2023/01/25 03:23:16;;;;;;;0.00;0.00;;;;;;;;;;4177723;28;20057;-43
2023/01/25 03:25:18;;;;;;;0.13;0.10;;;;;;;;;;4163572;28;20053;-43
2023/01/25 03:27:29;;;;;;;0.20;0.20;;;;;;;;;;4164407;28;20064;-42
2023/01/25 03:29:37;;;;;;;0.75;0.28;;;;;;;;;;4149793;28;20207;-42
2023/01/25 03:31:43;;;;;;;0.20;0.20;;;;;;;;;;4162738;28;20096;-44
2023/01/25 03:33:45;;;;;;;0.10;0.10;;;;;;;;;;4146493;28;20049;-44
2023/01/25 03:35:51;;;;;;;0.32;0.20;;;;;;;;;;4162652;28;20056;-43
2023/01/25 03:37:53;;;;;;;0.10;0.10;;;;;;;;;;4162438;28;20068;-42
2023/01/25 03:39:55;;;;;;;0.20;0.20;;;;;;;;;;4162212;28;20172;-43
2023/01/25 03:41:57;;;;;;;0.10;0.10;;;;;;;;;;4162513;28;20057;-47
2023/01/25 03:43:58;;;;;;;0.10;0.10;;;;;;;;;;4162483;28;20107;-43
2023/01/25 03:46:01;;;;;;;0.32;0.13;;;;;;;;;;4145902;28;20509;-43
2023/01/25 03:48:05;;;;;;;0.20;0.10;;;;;;;;;;4150353;28;20420;-43
2023/01/25 03:50:07;;;;;;;0.10;0.10;;;;;;;;;;4163758;28;20065;-43
2023/01/25 03:52:09;;;;;;;0.10;0.10;;;;;;;;;;4151864;28;20402;-43
2023/01/25 03:54:13;;;;;;;0.10;0.10;;;;;;;;;;4145319;28;20058;-42
2023/01/25 03:56:18;;;;;;;0.20;0.20;;;;;;;;;;4162170;28;20060;-42
2023/01/25 03:58:30;;;;;;;0.28;0.10;;;;;;;;;;4162656;28;20056;-43
2023/01/25 04:00:31;;;;;;;0.10;0.10;;;;;;;;;;4162110;28;20061;-43
2023/01/25 04:02:35;;;;;;;0.20;0.20;;;;;;;;;;4146486;28;20098;-44
2023/01/25 04:04:37;;;;;;;0.25;0.10;;;;;;;;;;4150964;28;20058;-42
2023/01/25 04:06:38;;;;;;;0.50;0.13;;;;;;;;;;4154378;28;20107;-44
2023/01/25 04:08:40;;;;;;;0.17;0.17;;;;;;;;;;4173526;28;20048;-43
2023/01/25 04:10:41;;;;;;;0.10;0.10;;;;;;;;;;4160725;28;20398;-43
2023/01/25 04:12:43;;;;;;;0.22;0.20;;;;;;;;;;4162991;28;20103;-44
2023/01/25 04:14:45;;;;;;;0.15;0.10;;;;;;;;;;4145263;28;20120;-43
2023/01/25 04:16:52;;;;;;;0.10;0.10;;;;;;;;;;4152232;28;20061;-43
2023/01/25 04:19:07;;;;;;;0.10;0.10;;;;;;;;;;4176854;28;20060;-43
2023/01/25 04:21:08;;;;;;;0.10;0.10;;;;;;;;;;4151856;28;20095;-42
2023/01/25 04:23:10;;;;;;;0.00;0.00;;;;;;;;;;4154136;28;20054;-44
2023/01/25 04:25:13;;;;;;;0.28;0.10;;;;;;;;;;4145441;28;20065;-44
2023/01/25 04:27:19;;;;;;;0.30;0.20;;;;;;;;;;4146932;28;20053;-43
2023/01/25 04:29:32;;;;;;;0.10;0.10;;;;;;;;;;4147164;28;20152;-43
2023/01/25 04:31:33;;;;;;;0.20;0.20;;;;;;;;;;4154202;28;20061;-42
2023/01/25 04:33:36;;;;;;;0.75;0.20;;;;;;;;;;4145366;28;20437;-43
2023/01/25 04:35:37;;;;;;;0.50;0.20;;;;;;;;;;4158685;28;20501;-43
2023/01/25 04:37:40;;;;;;;0.25;0.10;;;;;;;;;;4167353;28;20056;-43
2023/01/25 04:39:42;;;;;;;0.10;0.10;;;;;;;;;;4144895;28;20101;-42
2023/01/25 04:41:43;;;;;;;0.40;0.10;;;;;;;;;;4145462;28;20164;-42
2023/01/25 04:43:45;;;;;;;0.10;0.10;;;;;;;;;;4176569;28;20085;-42
2023/01/25 04:45:46;;;;;;;0.10;0.10;;;;;;;;;;4145092;28;20452;-43
2023/01/25 04:47:56;;;;;;;0.10;0.10;;;;;;;;;;4161837;28;20477;-43
2023/01/25 04:49:58;;;;;;;0.22;0.15;;;;;;;;;;4172325;28;20483;-43
2023/01/25 04:52:03;;;;;;;0.00;0.00;;;;;;;;;;4160961;28;20416;-44
2023/01/25 04:54:05;;;;;;;0.28;0.15;;;;;;;;;;4161213;28;20053;-43
2023/01/25 04:56:08;;;;;;;0.10;0.10;;;;;;;;;;4177891;28;20459;-42
2023/01/25 04:58:18;;;;;;;0.32;0.20;;;;;;;;;;4149402;28;20490;-43
2023/01/25 05:00:20;;;;;;;0.20;0.20;;;;;;;;;;4144877;28;20054;-45
2023/01/25 05:02:23;;;;;;;0.10;0.10;;;;;;;;;;4160069;28;20053;-43
2023/01/25 05:04:24;;;;;;;0.30;0.10;;;;;;;;;;4161124;28;20049;-42
2023/01/25 05:06:26;;;;;;;0.10;0.10;;;;;;;;;;4150329;28;20050;-42
2023/01/25 05:08:27;;;;;;;0.20;0.13;;;;;;;;;;4159306;28;20214;-42
2023/01/25 05:10:33;;;;;;;0.13;0.10;;;;;;;;;;4155937;28;20053;-42
2023/01/25 05:12:56;;;;;;;0.20;0.10;;;;;;;;;;4145374;28;20096;-44
2023/01/25 05:14:58;;;;;;;0.13;0.10;;;;;;;;;;4175008;28;20102;-42
2023/01/25 05:16:59;;;;;;;0.10;0.10;;;;;;;;;;4157635;28;20498;-42
2023/01/25 05:19:01;;;;;;;0.28;0.10;;;;;;;;;;4153040;28;20060;-43
2023/01/25 05:21:56;;;;;;;0.10;0.10;;;;;;;;;;4161316;28;20053;-42
2023/01/25 05:23:33;;;;;;;0.10;0.10;;;;;;;;;;4162370;28;20489;-42
2023/01/25 05:28:06;;;;;;;0.20;0.10;;;;;;;;;;4174952;28;20056;-44
2023/01/25 05:30:25;;;;;;;0.10;0.10;;;;;;;;;;4152413;28;20508;-43
2023/01/25 05:32:33;;;;;;;0.20;0.20;;;;;;;;;;4151289;28;20057;-43
2023/01/25 05:34:35;;;;;;;0.20;0.15;;;;;;;;;;4159331;28;20057;-42
2023/01/25 05:36:36;;;;;;;0.20;0.10;;;;;;;;;;4157255;28;20065;-42
2023/01/25 05:38:38;;;;;;;0.10;0.10;;;;;;;;;;4153564;28;20053;-45
2023/01/25 05:40:41;;;;;;;0.20;0.10;;;;;;;;;;4149980;28;20565;-44
2023/01/25 05:42:42;;;;;;;0.10;0.10;;;;;;;;;;4159812;28;20096;-43
2023/01/25 05:44:51;;;;;;;0.20;0.10;;;;;;;;;;4161232;28;20057;-42
2023/01/25 05:46:53;;;;;;;0.20;0.10;;;;;;;;;;4145002;28;20127;-43
2023/01/25 05:48:55;;;;;;;0.10;0.10;;;;;;;;;;4161079;28;20080;-45
2023/01/25 05:50:59;;;;;;;0.10;0.10;;;;;;;;;;4143301;28;20058;-44
2023/01/25 05:53:02;;;;;;;0.17;0.10;;;;;;;;;;4165551;28;20045;-43
2023/01/25 05:55:04;;;;;;;0.47;0.10;;;;;;;;;;4135726;28;20057;-43
2023/01/25 05:57:06;;;;;;;0.10;0.10;;;;;;;;;;4150022;28;20053;-46
2023/01/25 05:59:10;;;;;;;1.67;0.40;;;;;;;;;;4145108;28;20204;-43
2023/01/25 06:01:11;;;;;;;0.13;0.10;;;;;;;;;;4154131;28;20058;-43
2023/01/25 06:03:21;;;;;;;0.63;0.20;;;;;;;;;;4167103;28;20049;-43
2023/01/25 06:05:22;;;;;;;0.52;0.30;;;;;;;;;;4155852;28;20057;-43
2023/01/25 06:07:24;;;;;;;0.30;0.10;;;;;;;;;;4160712;28;20072;-45
2023/01/25 06:09:25;;;;;;;0.10;0.10;;;;;;;;;;4165765;28;20098;-42
2023/01/25 06:11:26;;;;;;;0.60;0.20;;;;;;;;;;4161962;28;20114;-43
2023/01/25 06:13:29;;;;;;;1.35;0.20;;;;;;;;;;4152471;28;20153;-43
2023/01/25 06:15:30;;;;;;;0.38;0.20;;;;;;;;;;4159119;28;20053;-42
2023/01/25 06:17:55;;;;;;;2.13;0.30;;;;;;;;;;4145586;28;20057;-46
2023/01/25 06:20:22;;;;;;;0.80;0.20;;;;;;;;;;4145516;28;20061;-43
2023/01/25 06:22:41;;;;;;;1.83;0.70;;;;;;;;;;4146416;28;20065;-44
2023/01/25 06:24:43;;;;;;;1.25;0.30;;;;;;;;;;4152949;28;20520;-43
2023/01/25 06:26:44;;;;;;;0.10;0.10;;;;;;;;;;4162904;28;20060;-42
2023/01/25 06:28:46;;;;;;;0.35;0.15;;;;;;;;;;4163140;28;20053;-43
2023/01/25 06:30:47;;;;;;;0.10;0.10;;;;;;;;;;4160188;28;20046;-45
2023/01/25 06:32:49;;;;;;;0.20;0.15;;;;;;;;;;4153106;28;20115;-43
2023/01/25 06:34:50;;;;;;;0.25;0.10;;;;;;;;;;4153617;28;20104;-43
2023/01/25 06:36:54;;;;;;;0.52;0.30;;;;;;;;;;4129001;28;20104;-43
2023/01/25 06:38:56;;;;;;;0.63;0.17;;;;;;;;;;4148617;28;20108;-42
2023/01/25 06:41:01;;;;;;;0.20;0.10;;;;;;;;;;4160909;28;20563;-44
2023/01/25 06:43:10;;;;;;;0.55;0.30;;;;;;;;;;4161305;28;20054;-43
2023/01/25 06:45:11;;;;;;;0.60;0.10;;;;;;;;;;4162622;28;20065;-46
2023/01/25 06:47:12;;;;;;;0.30;0.20;;;;;;;;;;4162588;28;20119;-44
2023/01/25 06:49:14;;;;;;;0.75;0.20;;;;;;;;;;4161932;28;20053;-42
2023/01/25 06:51:16;;;;;;;0.43;0.15;;;;;;;;;;4163032;28;20061;-45
2023/01/25 06:53:17;;;;;;;0.10;0.10;;;;;;;;;;4161406;28;20054;-44
2023/01/25 06:55:19;;;;;;;0.52;0.25;;;;;;;;;;4160716;28;20057;-42
2023/01/25 06:57:20;;;;;;;0.43;0.10;;;;;;;;;;4150597;28;20464;-45
2023/01/25 06:59:21;;;;;;;0.40;0.20;;;;;;;;;;4155386;28;20058;-45
2023/01/25 07:01:29;;;;;;;3.13;0.32;;;;;;;;;;4144614;28;20053;-43
2023/01/25 07:03:31;;;;;;;0.88;0.20;;;;;;;;;;4146752;28;20153;-44
2023/01/25 07:05:32;;;;;;;1.33;0.20;;;;;;;;;;4160608;28;20107;-43
2023/01/25 07:07:34;;;;;;;0.90;0.20;;;;;;;;;;4160404;28;20061;-43
2023/01/25 07:09:35;;;;;;;1.55;0.50;;;;;;;;;;4154018;28;20058;-45
2023/01/25 07:11:37;;;;;;;0.43;0.20;;;;;;;;;;4153373;28;20455;-43
2023/01/25 07:13:42;;;;;;;1.17;0.30;;;;;;;;;;4188167;28;20053;-43
2023/01/25 07:15:43;;;;;;;0.77;0.17;;;;;;;;;;4147509;28;20077;-45
2023/01/25 07:17:44;;;;;;;0.77;0.20;;;;;;;;;;4158292;28;20533;-46
2023/01/25 07:19:46;;;;;;;0.45;0.10;;;;;;;;;;4159980;28;20107;-45
2023/01/25 07:21:47;;;;;;;0.43;0.25;;;;;;;;;;4164921;28;20490;-44
2023/01/25 07:23:49;;;;;;;1.40;0.20;;;;;;;;;;4162878;28;20443;-43
2023/01/25 07:25:51;;;;;;;0.30;0.20;;;;;;;;;;4161742;28;20053;-44
2023/01/25 07:27:52;;;;;;;0.30;0.17;;;;;;;;;;4161088;28;20124;-46
2023/01/25 07:29:54;;;;;;;0.10;0.10;;;;;;;;;;4158169;28;20053;-44
2023/01/25 07:31:55;;;;;;;1.02;0.22;;;;;;;;;;4157454;28;20540;-43
2023/01/25 07:33:57;;;;;;;0.10;0.10;;;;;;;;;;4157088;28;20123;-44
2023/01/25 07:36:03;;;;;;;0.15;0.13;;;;;;;;;;4153191;28;20099;-43
2023/01/25 07:38:04;;;;;;;1.13;0.20;;;;;;;;;;4150693;28;20094;-44
2023/01/25 07:40:06;;;;;;;0.30;0.10;;;;;;;;;;4150552;28;20099;-44
2023/01/25 07:42:07;;;;;;;2.58;0.30;;;;;;;;;;4149860;28;20053;-43
2023/01/25 07:44:11;;;;;;;0.82;0.20;;;;;;;;;;4129501;28;20092;-44
2023/01/25 07:46:16;;;;;;;0.57;0.28;;;;;;;;;;4149562;28;21306;-43
2023/01/25 07:48:18;;;;;;;0.63;0.20;;;;;;;;;;4157473;28;20053;-43
2023/01/25 07:50:20;;;;;;;0.60;0.28;;;;;;;;;;4157247;28;20351;-45
2023/01/25 07:52:21;;;;;;;1.38;0.20;;;;;;;;;;4150822;28;20435;-43
2023/01/25 07:54:23;;;;;;;0.55;0.43;;;;;;;;;;4152775;28;21040;-46
2023/01/25 07:56:29;;;;;;;1.65;0.25;;;;;;;;;;4153788;28;20682;-44
2023/01/25 07:58:30;;;;;;;0.60;0.20;;;;;;;;;;4133757;28;20558;-47
2023/01/25 08:00:31;;;;;;;1.90;0.25;;;;;;;;;;4157472;28;20111;-46
2023/01/25 08:02:33;;;;;;;0.43;0.25;;;;;;;;;;4145806;28;20053;-44
2023/01/25 08:04:34;;;;;;;1.90;0.30;;;;;;;;;;4151276;28;20052;-46
2023/01/25 08:06:39;;;;;;;1.75;0.47;;;;;;;;;;4145283;28;20195;-44
2023/01/25 08:08:45;;;;;;;0.20;0.10;;;;;;;;;;4147965;28;20357;-46
2023/01/25 08:10:46;;;;;;;0.70;0.50;;;;;;;;;;4148432;28;20112;-44
2023/01/25 08:12:48;;;;;;;0.90;0.40;;;;;;;;;;4150938;28;20068;-47
2023/01/25 08:14:50;;;;;;;0.77;0.30;;;;;;;;;;4150746;28;20060;-45
2023/01/25 08:16:51;;;;;;;2.47;0.25;;;;;;;;;;4152725;28;20058;-45
2023/01/25 08:18:55;;;;;;;1.48;0.17;;;;;;;;;;4150751;28;20139;-47
2023/01/25 08:20:58;;;;;;;0.50;0.30;;;;;;;;;;4152425;28;20049;-48
2023/01/25 08:22:59;;;;;;;0.77;0.30;;;;;;;;;;4131662;28;20058;-46
2023/01/25 08:25:02;;;;;;;2.33;0.20;;;;;;;;;;4155234;28;20519;-47
2023/01/25 08:27:03;;;;;;;0.57;0.25;;;;;;;;;;4147378;28;20076;-45
2023/01/25 08:29:05;;;;;;;1.58;0.40;;;;;;;;;;4151397;28;20065;-45
2023/01/25 08:31:12;;;;;;;5.05;0.63;;;;;;;;;;4144916;28;20053;-46
2023/01/25 08:33:13;;;;;;;0.77;0.35;;;;;;;;;;4141910;28;20061;-45
2023/01/25 08:35:15;;;;;;;0.57;0.28;;;;;;;;;;4145371;28;20442;-48
2023/01/25 08:37:16;;;;;;;0.95;0.35;;;;;;;;;;4140256;28;20106;-43
2023/01/25 08:39:17;;;;;;;2.25;0.30;;;;;;;;;;4150916;28;20053;-45
2023/01/25 08:41:19;;;;;;;0.32;0.20;;;;;;;;;;4153219;28;20394;-50
2023/01/25 08:43:20;;;;;;;2.58;0.30;;;;;;;;;;4147539;28;20195;-46
2023/01/25 08:45:21;;;;;;;0.52;0.20;;;;;;;;;;4151257;28;20156;-46
2023/01/25 08:47:22;;;;;;;2.22;0.25;;;;;;;;;;4150216;28;20065;-46
2023/01/25 08:49:26;;;;;;;3.50;0.30;;;;;;;;;;4147951;28;20065;-45
2023/01/25 08:51:27;;;;;;;1.42;0.30;;;;;;;;;;4148494;28;20061;-46
2023/01/25 08:53:32;;;;;;;0.93;0.47;;;;;;;;;;4125213;28;20148;-46
2023/01/25 08:55:34;;;;;;;2.60;0.25;;;;;;;;;;4146348;28;20057;-45
2023/01/25 08:57:36;;;;;;;4.55;0.40;;;;;;;;;;4131332;28;20063;-45
2023/01/25 08:59:37;;;;;;;1.95;0.35;;;;;;;;;;4146795;28;20096;-48
2023/01/25 09:01:38;;;;;;;0.63;0.20;;;;;;;;;;4131903;28;20057;-44
2023/01/25 09:03:42;;;;;;;0.60;0.28;;;;;;;;;;4138454;28;20579;-41
2023/01/25 09:05:43;;;;;;;0.35;0.20;;;;;;;;;;4151382;28;20053;-43
2023/01/25 09:07:45;;;;;;;0.20;0.20;;;;;;;;;;4150916;28;20106;-41
2023/01/25 09:09:46;;;;;;;3.33;0.20;;;;;;;;;;4147507;28;20057;-45
2023/01/25 09:11:48;;;;;;;1.10;0.30;;;;;;;;;;4148692;28;20194;-44
2023/01/25 09:13:49;;;;;;;2.53;0.30;;;;;;;;;;4145946;28;20084;-43
2023/01/25 09:15:51;;;;;;;0.50;0.10;;;;;;;;;;4147967;28;20057;-42
2023/01/25 09:17:54;;;;;;;1.48;0.60;;;;;;;;;;4147641;28;20567;-41
2023/01/25 09:19:55;;;;;;;2.22;0.40;;;;;;;;;;4153580;28;20559;-43
2023/01/25 09:21:56;;;;;;;3.13;0.60;;;;;;;;;;4150959;28;20057;-41
2023/01/25 09:23:58;;;;;;;2.92;0.50;;;;;;;;;;4153273;28;20511;-43
2023/01/25 09:26:02;;;;;;;3.95;0.50;;;;;;;;;;4154259;28;20111;-42
2023/01/25 09:28:10;;;;;;;4.38;0.77;;;;;;;;;;4147610;28;20083;-41
2023/01/25 09:30:11;;;;;;;4.10;0.77;;;;;;;;;;4169143;28;20081;-40
2023/01/25 09:32:12;;;;;;;3.10;0.52;;;;;;;;;;4145196;28;20064;-40
2023/01/25 09:34:24;;;;;;;5.05;0.85;;;;;;;;;;4144209;28;20152;-40
2023/01/25 09:36:27;;;;;;;4.95;0.60;;;;;;;;;;4139523;28;20073;-45
2023/01/25 09:38:28;;;;;;;1.70;0.60;;;;;;;;;;4148966;28;20713;-45
2023/01/25 09:40:33;;;;;;;1.65;0.55;;;;;;;;;;4152948;28;20068;-45
2023/01/25 09:42:40;;;;;;;2.70;0.60;;;;;;;;;;4149317;28;21929;-42
2023/01/25 09:45:13;;;;;;;4.88;0.70;;;;;;;;;;4151456;28;20123;-43
2023/01/25 09:47:32;;;;;;;2.08;0.85;;;;;;;;;;4150430;28;20675;-44
2023/01/25 09:49:40;;;;;;;;;;;;;;;;;;4172647;28;20083;-46
2023/01/25 09:51:44;;;;;;;3.55;0.80;;;;;;;;;;4146069;28;19929;-45
2023/01/25 09:53:50;;;;;;;2.30;0.68;;;;;;;;;;4152496;28;20084;-47
2023/01/25 09:55:57;;;;;;;3.13;0.95;;;;;;;;;;4153259;28;20616;-44
2023/01/25 09:58:01;;;;;;;3.40;1.33;;;;;;;;;;4147966;28;20057;-46
2023/01/25 10:00:20;;;;;;;2.65;0.52;;;;;;;;;;4149166;28;20056;-46
2023/01/25 10:02:38;;;;;;;;;;;;;;;;;;4136935;28;20460;-47
2023/01/25 10:04:41;;;;;;;2.10;0.80;;;;;;;;;;4139238;28;19924;-44
2023/01/25 10:06:46;;;;;;;2.55;0.60;;;;;;;;;;4146199;28;20564;-43
2023/01/25 10:09:07;;;;;;;3.53;0.80;;;;;;;;;;4153702;28;20099;-42
2023/01/25 10:11:28;;;;;;;3.17;0.95;;;;;;;;;;4147511;28;20095;-44
2023/01/25 10:13:30;;;;;;;1.98;0.60;;;;;;;;;;4154146;28;20476;-42
2023/01/25 10:15:39;;;;;;;3.88;0.65;;;;;;;;;;4148628;28;20497;-43
2023/01/25 10:17:40;;;;;;;1.98;0.60;;;;;;;;;;4140088;28;20156;-47
2023/01/25 10:20:04;;;;;;;1.65;0.60;;;;;;;;;;4134154;28;20131;-44
2023/01/25 10:22:24;;;;;;;1.55;0.60;;;;;;;;;;4145560;28;20057;-45
2023/01/25 10:24:52;;;;;;;2.10;0.60;;;;;;;;;;4150994;28;20053;-46
2023/01/25 10:27:00;;;;;;;1.70;0.73;;;;;;;;;;4118294;28;20049;-45
2023/01/25 10:29:19;;;;;;;2.40;0.63;;;;;;;;;;4153441;28;20497;-42
2023/01/25 10:31:49;;;;;;;1.45;0.60;;;;;;;;;;4153543;28;20077;-44
2023/01/25 10:33:51;;;;;;;2.30;0.43;;;;;;;;;;4149116;28;20420;-46
2023/01/25 10:35:54;;;;;;;1.05;0.60;;;;;;;;;;4153325;28;20056;-44
2023/01/25 10:37:58;;;;;;;2.15;0.52;;;;;;;;;;4153406;28;20103;-44
2023/01/25 10:40:13;;;;;;;0.60;0.40;;;;;;;;;;4149925;28;20061;-45
2023/01/25 10:42:15;;;;;;;5.15;0.60;;;;;;;;;;4151689;28;20057;-43
2023/01/25 10:44:25;;;;;;;3.25;0.40;;;;;;;;;;4149462;28;20107;-43
2023/01/25 10:46:27;;;;;;;6.57;0.80;;;;;;;;;;4148445;28;20053;-44
2023/01/25 10:48:33;;;;;;;0.55;0.40;;;;;;;;;;4155996;28;20285;-44
2023/01/25 10:50:37;;;;;;;0.80;0.40;;;;;;;;;;4152711;28;20428;-45
2023/01/25 10:52:38;;;;;;;3.70;0.95;;;;;;;;;;4148216;28;20061;-44
2023/01/25 10:54:40;;;;;;;1.67;1.17;;;;;;;;;;4157968;28;20626;-43
2023/01/25 10:56:43;;;;;;;2.03;0.55;;;;;;;;;;4150621;28;20099;-41
2023/01/25 10:58:47;;;;;;;2.45;0.60;;;;;;;;;;4138874;28;20061;-42
2023/01/25 11:00:50;;;;;;;2.25;0.40;;;;;;;;;;4130277;28;20258;-40
2023/01/25 11:02:52;;;;;;;2.05;0.47;;;;;;;;;;4155994;28;20103;-41
2023/01/25 11:04:54;;;;;;;1.95;0.52;;;;;;;;;;4158580;28;20054;-41
2023/01/25 11:06:55;;;;;;;1.55;0.77;;;;;;;;;;4162503;28;20063;-41
2023/01/25 11:08:56;;;;;;;3.72;0.50;;;;;;;;;;4159605;28;20455;-41
2023/01/25 11:10:58;;;;;;;0.52;0.50;;;;;;;;;;4157875;28;20057;-43
2023/01/25 11:13:15;;;;;;;1.13;0.50;;;;;;;;;;4158221;28;20064;-40
2023/01/25 11:15:24;;;;;;;0.77;0.30;;;;;;;;;;4145664;28;20053;-39
2023/01/25 11:17:30;;;;;;;2.00;0.35;;;;;;;;;;4150530;28;20058;-41
2023/01/25 11:19:34;;;;;;;1.38;0.40;;;;;;;;;;4150670;28;20117;-40
2023/01/25 11:21:35;;;;;;;1.67;0.60;;;;;;;;;;4153468;28;21294;-41
2023/01/25 11:23:36;;;;;;;1.60;0.60;;;;;;;;;;4159921;28;20108;-40
2023/01/25 11:25:37;;;;;;;0.77;0.40;;;;;;;;;;4135956;28;20061;-42
2023/01/25 11:27:39;;;;;;;0.75;0.63;;;;;;;;;;4149111;28;20057;-42
2023/01/25 11:29:40;;;;;;;0.77;0.40;;;;;;;;;;4150224;28;20058;-41
2023/01/25 11:31:45;;;;;;;0.70;0.55;;;;;;;;;;4151210;28;20061;-42
2023/01/25 11:33:46;;;;;;;1.73;0.50;;;;;;;;;;4149069;28;20100;-42
2023/01/25 11:36:26;;;;;;;1.52;0.38;;;;;;;;;;4141338;28;20053;-43
2023/01/25 11:38:28;;;;;;;0.93;0.30;;;;;;;;;;4102236;28;20059;-42
2023/01/25 11:40:49;;;;;;;0.98;0.45;;;;;;;;;;4120743;28;20065;-43
2023/01/25 11:43:06;;;;;;;0.50;0.30;;;;;;;;;;4120168;28;20220;-43
2023/01/25 11:45:41;;;;;;;0.65;0.30;;;;;;;;;;4143039;28;20115;-45
2023/01/25 11:47:58;;;;;;;1.50;0.28;;;;;;;;;;4148233;28;20050;-44
2023/01/25 11:50:02;;;;;;;0.65;0.22;;;;;;;;;;4152178;28;20401;-45
2023/01/25 11:52:21;;;;;;;0.82;0.38;;;;;;;;;;4155518;28;21450;-44
2023/01/25 11:54:29;;;;;;;;;;;;;;;;;;4149737;28;20448;-45
2023/01/25 11:56:58;;;;;;;0.52;0.20;;;;;;;;;;4142082;28;20329;-44
2023/01/25 11:59:07;;;;;;;2.17;0.40;;;;;;;;;;4150001;28;20460;-45
2023/01/25 12:01:17;;;;;;;0.68;0.40;;;;;;;;;;4149540;28;20472;-44
2023/01/25 12:03:55;;;;;;;2.42;0.30;;;;;;;;;;4151015;28;20111;-47
2023/01/25 12:06:26;;;;;;;0.57;0.30;;;;;;;;;;4152907;28;20053;-47
2023/01/25 12:08:30;;;;;;;1.02;0.35;;;;;;;;;;4151859;28;20130;-47
2023/01/25 12:11:11;;;;;;;0.45;0.30;;;;;;;;;;4151232;28;20061;-45
2023/01/25 12:13:22;;;;;;;0.73;0.47;;;;;;;;;;4151187;28;20511;-45
2023/01/25 12:15:29;;;;;;;;;;;;;;;;;;4148536;28;20084;-47
2023/01/25 12:17:48;;;;;;;0.43;0.22;;;;;;;;;;4154453;28;19982;-46
2023/01/25 12:20:24;;;;;;;0.30;0.30;;;;;;;;;;4156119;28;20057;-45
2023/01/25 12:22:51;;;;;;;0.57;0.20;;;;;;;;;;4103703;28;20058;-44
2023/01/25 12:25:02;;;;;;;0.93;0.40;;;;;;;;;;4157283;28;20041;-46
2023/01/25 12:27:22;;;;;;;1.02;0.40;;;;;;;;;;4152100;28;21794;-44
2023/01/25 12:29:48;;;;;;;0.80;0.40;;;;;;;;;;4150373;28;20515;-45
2023/01/25 12:31:57;;;;;;;1.52;0.35;;;;;;;;;;4149634;28;20072;-46